RJNA(METAR)
05/30 16:00
METAR RJNA 300700Z 20010KT 170V230 9999 FEW030 BKN230 28/12 Q1017 RMK
1CU030 A3005=
戻る
トップページへ戻る
IMOC Co,.Ltd.